createdAt,value
2023-06-30T00:01:03.778Z,77.95
2023-06-30T00:03:33.910Z,77.44
2023-06-30T00:06:03.545Z,76.74
2023-06-30T00:08:33.657Z,77.05
2023-06-30T00:11:03.500Z,77.05
2023-06-30T00:13:33.646Z,77.63
2023-06-30T00:16:03.543Z,76.92
2023-06-30T00:18:33.669Z,77.14
2023-06-30T00:21:04.175Z,76.61
2023-06-30T00:23:34.312Z,75.61
2023-06-30T00:26:06.761Z,75.61
2023-06-30T00:28:37.784Z,75.48
2023-06-30T00:31:07.676Z,76.11
2023-06-30T00:33:37.931Z,76.88
2023-06-30T00:36:09.191Z,75.92
2023-06-30T00:38:39.137Z,76.48
2023-06-30T00:41:09.690Z,76.15
2023-06-30T00:43:43.008Z,76.79
2023-06-30T00:46:14.939Z,77.75
2023-06-30T00:48:45.536Z,78.43
2023-06-30T00:51:15.477Z,78.63
2023-06-30T00:53:45.907Z,78.47
2023-06-30T00:56:16.265Z,78.26
2023-06-30T00:58:47.337Z,77.62
2023-06-30T01:01:35.094Z,77.40
2023-06-30T01:04:20.577Z,77.22
2023-06-30T01:06:58.980Z,77.91
2023-06-30T01:09:31.861Z,77.42
2023-06-30T01:12:02.315Z,77.38
2023-06-30T01:14:34.032Z,77.35
2023-06-30T01:17:05.339Z,77.60
2023-06-30T01:19:44.153Z,77.75
2023-06-30T01:22:22.150Z,77.34
2023-06-30T01:24:54.443Z,78.35
2023-06-30T01:27:24.524Z,80.03
2023-06-30T01:29:55.593Z,80.03
2023-06-30T01:32:25.689Z,80.17
2023-06-30T01:34:55.565Z,79.54
2023-06-30T01:37:25.779Z,79.28
2023-06-30T01:39:55.930Z,78.59
2023-06-30T01:42:26.503Z,78.41
2023-06-30T01:44:58.234Z,78.48
2023-06-30T01:47:28.051Z,77.93
2023-06-30T01:49:59.010Z,77.89
2023-06-30T01:52:28.981Z,78.26
2023-06-30T01:55:00.462Z,78.34
2023-06-30T01:57:30.310Z,79.00
2023-06-30T02:00:00.423Z,78.16
2023-06-30T02:02:30.301Z,78.38
2023-06-30T02:05:00.057Z,78.38
2023-06-30T02:07:29.949Z,78.02
2023-06-30T02:10:00.089Z,77.31
2023-06-30T02:12:31.472Z,77.82
2023-06-30T02:15:01.391Z,77.82
2023-06-30T02:17:36.541Z,77.89
2023-06-30T02:20:07.598Z,78.47
2023-06-30T02:22:39.149Z,78.18
2023-06-30T02:25:09.024Z,78.47
2023-06-30T02:27:38.861Z,78.71
2023-06-30T02:30:10.241Z,78.04
2023-06-30T02:32:41.274Z,77.60
2023-06-30T02:35:11.639Z,77.99
2023-06-30T02:37:41.513Z,78.48
2023-06-30T02:40:11.682Z,79.34
2023-06-30T02:42:41.903Z,78.24
2023-06-30T02:45:12.049Z,77.95
2023-06-30T02:47:41.999Z,78.80
2023-06-30T02:50:13.180Z,79.07
2023-06-30T02:52:42.808Z,78.46
2023-06-30T02:55:12.517Z,78.43
2023-06-30T02:57:42.353Z,79.22
2023-06-30T03:00:12.865Z,79.30
2023-06-30T03:02:43.268Z,79.04
2023-06-30T03:05:13.603Z,79.24
2023-06-30T03:07:43.616Z,79.19
2023-06-30T03:10:14.273Z,79.22
2023-06-30T03:12:44.193Z,79.22
2023-06-30T03:15:14.379Z,79.24
2023-06-30T03:17:44.288Z,79.24
2023-06-30T03:20:14.075Z,78.75
2023-06-30T03:22:45.098Z,79.09
2023-06-30T03:25:14.717Z,79.06
2023-06-30T03:27:45.225Z,78.92
2023-06-30T03:30:17.358Z,79.07
2023-06-30T03:32:47.675Z,79.55
2023-06-30T03:35:17.551Z,78.81
2023-06-30T03:37:47.492Z,78.84
2023-06-30T03:40:18.752Z,79.23
2023-06-30T03:42:48.598Z,79.12
2023-06-30T03:45:18.526Z,79.40
2023-06-30T03:47:48.907Z,79.09
2023-06-30T03:50:20.026Z,79.27
2023-06-30T03:52:50.220Z,79.48
2023-06-30T03:55:20.346Z,78.85
2023-06-30T03:57:50.195Z,79.24
2023-06-30T04:00:21.395Z,79.53
2023-06-30T04:02:51.285Z,79.01
2023-06-30T04:05:20.920Z,79.01
2023-06-30T04:07:50.862Z,78.78
2023-06-30T04:10:20.667Z,79.02
2023-06-30T04:12:51.071Z,79.32
2023-06-30T04:15:20.913Z,79.96
2023-06-30T04:17:50.817Z,79.31
2023-06-30T04:20:20.805Z,79.26
2023-06-30T04:22:50.672Z,79.19
2023-06-30T04:25:20.631Z,78.12
2023-06-30T04:27:50.506Z,78.25
2023-06-30T04:30:20.092Z,78.06
2023-06-30T04:32:49.973Z,77.86
2023-06-30T04:35:20.055Z,77.73
2023-06-30T04:37:49.866Z,77.71
2023-06-30T04:40:19.861Z,77.80
2023-06-30T04:42:49.973Z,77.89
2023-06-30T04:45:19.760Z,77.04
2023-06-30T04:47:49.664Z,77.60
2023-06-30T04:50:20.253Z,78.17
2023-06-30T04:52:50.087Z,77.73
2023-06-30T04:55:19.692Z,77.88
2023-06-30T04:57:49.548Z,77.68
2023-06-30T05:00:19.224Z,78.55
2023-06-30T05:02:49.893Z,78.45
2023-06-30T05:05:19.888Z,77.84
2023-06-30T05:07:49.728Z,77.67
2023-06-30T05:10:19.270Z,77.04
2023-06-30T05:12:49.741Z,76.89
2023-06-30T05:15:19.712Z,76.69
2023-06-30T05:17:49.755Z,77.18
2023-06-30T05:20:20.708Z,77.18
2023-06-30T05:22:50.554Z,77.24
2023-06-30T05:25:20.097Z,78.05
2023-06-30T05:27:49.916Z,77.23
2023-06-30T05:30:20.400Z,76.71
2023-06-30T05:32:50.079Z,76.62
2023-06-30T05:35:19.662Z,77.77
2023-06-30T05:37:49.484Z,76.83
2023-06-30T05:40:20.447Z,76.55
2023-06-30T05:42:50.290Z,76.22
2023-06-30T05:45:20.212Z,76.37
2023-06-30T05:47:50.264Z,76.00
2023-06-30T05:50:21.576Z,75.45
2023-06-30T05:52:51.677Z,74.91
2023-06-30T05:55:21.789Z,73.36
2023-06-30T05:57:51.629Z,74.63
2023-06-30T06:00:21.850Z,72.63
2023-06-30T06:02:51.855Z,72.31
2023-06-30T06:05:21.836Z,70.11
2023-06-30T06:07:51.732Z,70.11
2023-06-30T06:10:21.415Z,70.04
2023-06-30T06:12:55.833Z,70.04
2023-06-30T06:15:25.669Z,68.18
2023-06-30T06:17:55.579Z,67.89
2023-06-30T06:20:25.134Z,66.62
2023-06-30T06:22:54.986Z,65.89
2023-06-30T06:25:24.901Z,65.60
2023-06-30T06:27:54.741Z,66.26
2023-06-30T06:30:26.203Z,64.39
2023-06-30T06:32:56.076Z,63.00
2023-06-30T06:35:26.039Z,63.13
2023-06-30T06:37:55.861Z,61.36
2023-06-30T06:40:25.761Z,60.23
2023-06-30T06:42:56.471Z,60.00
2023-06-30T06:45:28.142Z,58.54
2023-06-30T06:48:26.046Z,57.54
2023-06-30T06:51:00.985Z,58.36
2023-06-30T06:53:34.978Z,57.09
2023-06-30T06:56:06.957Z,54.91
2023-06-30T06:58:37.361Z,53.97
2023-06-30T07:01:07.627Z,54.22
2023-06-30T07:03:38.522Z,55.70
2023-06-30T07:06:09.516Z,54.38
2023-06-30T07:08:40.385Z,53.39
2023-06-30T07:11:11.934Z,52.11
2023-06-30T07:13:41.952Z,50.80
2023-06-30T07:16:13.336Z,50.81
2023-06-30T07:18:43.249Z,50.63
2023-06-30T07:21:13.427Z,49.23
2023-06-30T07:23:43.281Z,48.81
2023-06-30T07:26:13.524Z,48.45
2023-06-30T07:31:12.154Z,48.11
2023-06-30T07:33:42.030Z,48.26
2023-06-30T07:36:12.952Z,48.25
2023-06-30T07:38:42.786Z,47.25
2023-06-30T07:41:12.792Z,46.13
2023-06-30T07:43:42.313Z,45.29
2023-06-30T07:46:13.125Z,44.67
2023-06-30T07:48:43.057Z,43.79
2023-06-30T07:51:12.904Z,43.00
2023-06-30T07:53:42.734Z,43.70
2023-06-30T07:56:12.441Z,43.00
2023-06-30T07:58:42.266Z,42.36
2023-06-30T08:01:12.119Z,41.53
2023-06-30T08:03:42.444Z,41.77
2023-06-30T08:06:12.713Z,42.17
2023-06-30T08:08:42.629Z,41.59
2023-06-30T08:11:12.482Z,41.02
2023-06-30T08:13:42.281Z,41.19
2023-06-30T08:16:14.133Z,40.96
2023-06-30T08:18:51.168Z,40.20
2023-06-30T08:21:15.828Z,40.86
2023-06-30T08:23:45.676Z,40.22
2023-06-30T08:26:15.581Z,40.10
2023-06-30T08:28:45.110Z,38.75
2023-06-30T08:31:15.043Z,38.70
2023-06-30T08:33:44.919Z,38.69
2023-06-30T08:36:14.833Z,37.72
2023-06-30T08:38:44.667Z,38.49
2023-06-30T08:41:15.264Z,38.48
2023-06-30T08:43:46.712Z,37.09
2023-06-30T08:46:19.650Z,37.75
2023-06-30T08:48:49.557Z,37.67
2023-06-30T08:51:20.549Z,37.49
2023-06-30T08:53:52.600Z,36.55
2023-06-30T08:56:22.619Z,36.18
2023-06-30T08:58:52.737Z,36.55
2023-06-30T09:01:23.232Z,36.78
2023-06-30T09:03:53.343Z,36.17
2023-06-30T09:06:22.968Z,36.98
2023-06-30T09:08:55.843Z,35.84
2023-06-30T09:11:27.526Z,35.55
2023-06-30T09:14:04.879Z,36.96
2023-06-30T09:16:34.884Z,36.97
2023-06-30T09:19:05.876Z,38.26
2023-06-30T09:21:35.710Z,36.79
2023-06-30T09:24:06.922Z,37.34
2023-06-30T09:26:36.556Z,34.03
2023-06-30T09:29:11.207Z,34.03
2023-06-30T09:31:41.580Z,34.58
2023-06-30T09:34:15.882Z,34.83
2023-06-30T09:36:53.353Z,35.94
2023-06-30T09:39:24.428Z,34.41
2023-06-30T09:41:54.266Z,32.91
2023-06-30T09:44:24.256Z,33.31
2023-06-30T09:46:55.597Z,33.31
2023-06-30T09:49:32.242Z,32.89
2023-06-30T09:52:05.066Z,34.47
2023-06-30T09:54:44.552Z,33.31
2023-06-30T09:57:09.443Z,33.18
2023-06-30T09:59:39.258Z,33.18
2023-06-30T10:02:11.810Z,33.93
2023-06-30T10:04:42.388Z,34.50
2023-06-30T10:07:16.229Z,34.50
2023-06-30T10:09:49.105Z,34.81
2023-06-30T10:12:21.255Z,35.08
2023-06-30T10:14:52.612Z,35.08
2023-06-30T10:17:22.887Z,35.65
2023-06-30T10:19:54.096Z,35.48
2023-06-30T10:22:23.769Z,35.23
2023-06-30T10:24:54.750Z,35.97
2023-06-30T10:27:25.309Z,36.35
2023-06-30T10:29:56.409Z,36.66
2023-06-30T10:32:26.079Z,37.23
2023-06-30T10:34:56.543Z,37.00
2023-06-30T10:37:28.329Z,37.40
2023-06-30T10:39:58.181Z,36.13
2023-06-30T10:42:32.254Z,36.06
2023-06-30T10:45:02.243Z,34.59
2023-06-30T10:47:33.737Z,35.40
2023-06-30T10:50:06.611Z,35.52
2023-06-30T10:52:38.019Z,35.10
2023-06-30T10:55:08.886Z,36.97
2023-06-30T10:57:40.124Z,36.97
2023-06-30T11:00:13.226Z,37.25
2023-06-30T11:02:59.686Z,36.69
2023-06-30T11:05:36.886Z,36.13
2023-06-30T11:08:10.137Z,36.12
2023-06-30T11:10:47.753Z,35.55
2023-06-30T11:13:17.626Z,33.85
2023-06-30T11:15:53.442Z,34.32
2023-06-30T11:18:25.113Z,33.39
2023-06-30T11:21:08.076Z,34.42
2023-06-30T11:23:44.948Z,34.35
2023-06-30T11:26:19.717Z,32.67
2023-06-30T11:28:50.344Z,32.27
2023-06-30T11:31:20.301Z,32.91
2023-06-30T11:33:50.311Z,31.58
2023-06-30T11:36:20.831Z,32.01
2023-06-30T11:38:51.813Z,34.03
2023-06-30T11:41:25.461Z,34.03
2023-06-30T11:43:59.775Z,33.53
2023-06-30T11:46:31.404Z,32.72
2023-06-30T11:49:01.957Z,32.72
2023-06-30T11:51:32.642Z,31.57
2023-06-30T11:54:02.235Z,32.99
2023-06-30T11:56:32.165Z,33.26
2023-06-30T11:59:02.315Z,30.85
2023-06-30T12:01:32.222Z,31.08
2023-06-30T12:04:10.041Z,30.58
2023-06-30T12:06:39.988Z,30.28
2023-06-30T12:09:09.813Z,30.57
2023-06-30T12:11:41.160Z,32.32
2023-06-30T12:14:14.950Z,30.91
2023-06-30T12:16:46.691Z,30.91
2023-06-30T12:19:16.841Z,31.27
2023-06-30T12:22:04.856Z,29.43
2023-06-30T12:24:36.025Z,30.81
2023-06-30T12:27:08.906Z,30.66
2023-06-30T12:29:38.949Z,29.81
2023-06-30T12:32:16.743Z,29.79
2023-06-30T12:34:47.441Z,30.17
2023-06-30T12:37:18.953Z,29.89
2023-06-30T12:39:48.778Z,30.43
2023-06-30T12:42:19.203Z,30.90
2023-06-30T12:44:49.048Z,30.76
2023-06-30T12:47:18.884Z,31.17
2023-06-30T12:49:50.057Z,30.95
2023-06-30T12:52:20.041Z,31.09
2023-06-30T12:54:49.964Z,31.09
2023-06-30T12:57:19.496Z,31.81
2023-06-30T12:59:49.312Z,31.01
2023-06-30T13:02:19.492Z,31.59
2023-06-30T13:04:49.345Z,31.97
2023-06-30T13:07:19.247Z,32.28
2023-06-30T13:09:49.193Z,32.28
2023-06-30T13:12:20.704Z,32.32
2023-06-30T13:14:50.541Z,33.03
2023-06-30T13:17:21.531Z,33.91
2023-06-30T13:19:51.856Z,33.79
2023-06-30T13:22:21.501Z,33.45
2023-06-30T13:24:51.693Z,33.44
2023-06-30T13:27:22.469Z,33.44
2023-06-30T13:29:53.917Z,34.16
2023-06-30T13:32:23.481Z,33.79
2023-06-30T13:34:54.027Z,33.41
2023-06-30T13:37:23.859Z,32.30
2023-06-30T13:39:53.774Z,32.49
2023-06-30T13:42:23.377Z,32.49
2023-06-30T13:44:53.651Z,33.75
2023-06-30T13:47:23.791Z,33.82
2023-06-30T13:49:53.635Z,33.89
2023-06-30T13:52:23.251Z,34.14
2023-06-30T13:54:53.081Z,35.26
2023-06-30T13:57:23.011Z,35.95
2023-06-30T13:59:52.830Z,34.92
2023-06-30T14:02:22.701Z,33.39
2023-06-30T14:04:52.614Z,33.46
2023-06-30T14:07:22.288Z,33.57
2023-06-30T14:09:52.749Z,34.64
2023-06-30T14:12:22.626Z,34.72
2023-06-30T14:14:52.176Z,35.60
2023-06-30T14:17:22.086Z,35.50
2023-06-30T14:19:51.993Z,35.79
2023-06-30T14:22:21.782Z,36.09
2023-06-30T14:24:51.663Z,35.47
2023-06-30T14:27:21.559Z,35.57
2023-06-30T14:29:51.516Z,36.25
2023-06-30T14:32:23.959Z,36.93
2023-06-30T14:34:53.008Z,36.93
2023-06-30T14:37:22.846Z,36.31
2023-06-30T14:39:52.681Z,35.92
2023-06-30T14:42:31.378Z,35.87
2023-06-30T14:44:54.147Z,36.03
2023-06-30T14:47:24.030Z,35.73
2023-06-30T14:49:55.343Z,35.63
2023-06-30T14:52:25.444Z,34.51
2023-06-30T14:54:55.588Z,34.13
2023-06-30T14:57:25.971Z,32.83
2023-06-30T14:59:55.893Z,32.91
2023-06-30T15:02:25.755Z,32.29
2023-06-30T15:04:55.754Z,31.61
2023-06-30T15:07:26.480Z,31.52
2023-06-30T15:09:56.331Z,30.94
2023-06-30T15:12:26.419Z,31.00
2023-06-30T15:14:56.254Z,31.76
2023-06-30T15:17:26.493Z,31.76
2023-06-30T15:19:56.389Z,30.47
2023-06-30T15:22:27.766Z,29.61
2023-06-30T15:25:02.151Z,29.72
2023-06-30T15:27:33.246Z,30.23
2023-06-30T15:30:04.731Z,30.35
2023-06-30T15:32:34.752Z,30.75
2023-06-30T15:35:05.705Z,32.17
2023-06-30T15:37:36.167Z,33.01
2023-06-30T15:40:08.891Z,33.44
2023-06-30T15:42:38.722Z,33.75
2023-06-30T15:45:09.080Z,34.50
2023-06-30T15:47:38.971Z,34.80
2023-06-30T15:50:11.351Z,34.85
2023-06-30T15:52:41.197Z,34.91
2023-06-30T15:55:13.378Z,34.83
2023-06-30T15:57:43.412Z,34.46
2023-06-30T16:00:14.870Z,35.01
2023-06-30T16:02:44.823Z,34.32
2023-06-30T16:05:14.872Z,34.36
2023-06-30T16:07:44.866Z,33.96
2023-06-30T16:10:16.230Z,34.97
2023-06-30T16:12:46.097Z,34.31
2023-06-30T16:15:16.086Z,34.02
2023-06-30T16:17:46.026Z,34.32
2023-06-30T16:20:16.711Z,34.01
2023-06-30T16:22:46.725Z,34.12
2023-06-30T16:25:16.339Z,34.12
2023-06-30T16:27:46.164Z,33.67
2023-06-30T16:30:31.144Z,33.49
2023-06-30T16:33:02.042Z,32.32
2023-06-30T16:35:32.237Z,32.55
2023-06-30T16:38:02.362Z,32.48
2023-06-30T16:40:32.232Z,32.90
2023-06-30T16:43:02.130Z,33.72
2023-06-30T16:45:31.731Z,33.58
2023-06-30T16:48:01.441Z,33.95
2023-06-30T16:50:31.290Z,34.58
2023-06-30T16:53:01.208Z,34.80
2023-06-30T16:55:31.048Z,35.20
2023-06-30T16:58:02.233Z,35.77
2023-06-30T17:00:31.897Z,35.44
2023-06-30T17:03:01.690Z,35.48
2023-06-30T17:05:31.337Z,35.54
2023-06-30T17:08:01.159Z,35.33
2023-06-30T17:10:31.219Z,36.35
2023-06-30T17:13:01.515Z,36.72
2023-06-30T17:15:35.050Z,36.62
2023-06-30T17:18:06.417Z,36.87
2023-06-30T17:20:36.275Z,37.25
2023-06-30T17:23:07.240Z,37.38
2023-06-30T17:25:37.094Z,37.58
2023-06-30T17:28:06.799Z,37.76
2023-06-30T17:30:37.024Z,38.06
2023-06-30T17:33:08.304Z,38.32
2023-06-30T17:35:38.183Z,38.71
2023-06-30T17:38:10.051Z,38.71
2023-06-30T17:40:39.892Z,38.54
2023-06-30T17:43:09.721Z,38.53
2023-06-30T17:45:41.458Z,38.87
2023-06-30T17:48:11.773Z,39.40
2023-06-30T17:50:41.743Z,38.97
2023-06-30T17:53:11.665Z,38.98
2023-06-30T17:55:41.583Z,39.17
2023-06-30T17:58:11.238Z,38.43
2023-06-30T18:00:41.282Z,38.68
2023-06-30T18:03:11.127Z,38.51
2023-06-30T18:05:42.625Z,38.83
2023-06-30T18:08:12.420Z,39.39
2023-06-30T18:10:42.199Z,39.39
2023-06-30T18:13:12.055Z,39.70
2023-06-30T18:15:41.883Z,39.53
2023-06-30T18:18:12.149Z,39.87
2023-06-30T18:20:41.971Z,40.05
2023-06-30T18:23:12.398Z,40.26
2023-06-30T18:25:42.226Z,40.25
2023-06-30T18:28:12.070Z,40.58
2023-06-30T18:30:41.883Z,40.88
2023-06-30T18:33:11.425Z,40.90
2023-06-30T18:35:41.312Z,41.00
2023-06-30T18:38:11.521Z,41.32
2023-06-30T18:40:41.373Z,42.35
2023-06-30T18:43:11.810Z,43.36
2023-06-30T18:45:41.656Z,43.99
2023-06-30T18:48:12.162Z,45.38
2023-06-30T18:50:41.985Z,46.26
2023-06-30T18:53:11.837Z,47.49
2023-06-30T18:55:41.693Z,48.27
2023-06-30T18:58:11.792Z,48.03
2023-06-30T19:00:41.641Z,47.89
2023-06-30T19:03:13.313Z,48.43
2023-06-30T19:05:43.597Z,47.71
2023-06-30T19:08:13.317Z,48.44
2023-06-30T19:10:43.156Z,48.09
2023-06-30T19:13:13.059Z,48.09
2023-06-30T19:15:43.241Z,48.23
2023-06-30T19:18:18.761Z,48.47
2023-06-30T19:20:48.937Z,48.68
2023-06-30T19:23:21.239Z,48.85
2023-06-30T19:25:50.355Z,49.81
2023-06-30T19:28:20.801Z,50.41
2023-06-30T19:30:51.690Z,49.70
2023-06-30T19:33:23.245Z,50.28
2023-06-30T19:35:53.145Z,49.86
2023-06-30T19:38:23.281Z,51.09
2023-06-30T19:40:53.161Z,50.69
2023-06-30T19:43:23.071Z,50.48
2023-06-30T19:45:53.303Z,50.90
2023-06-30T19:48:24.184Z,50.79
2023-06-30T19:50:54.068Z,51.22
2023-06-30T19:53:23.884Z,51.32
2023-06-30T19:55:53.723Z,51.32
2023-06-30T19:58:23.247Z,50.71
2023-06-30T20:00:53.086Z,50.00
2023-06-30T20:03:23.002Z,50.00
2023-06-30T20:05:52.849Z,50.56
2023-06-30T20:08:22.759Z,51.13
2023-06-30T20:10:52.604Z,51.04
2023-06-30T20:13:22.454Z,51.07
2023-06-30T20:15:52.385Z,51.33
2023-06-30T20:18:21.911Z,52.00
2023-06-30T20:20:52.058Z,51.09
2023-06-30T20:23:21.904Z,51.14
2023-06-30T20:25:51.754Z,50.85
2023-06-30T20:28:21.576Z,51.45
2023-06-30T20:30:51.838Z,50.53
2023-06-30T20:33:21.896Z,50.64
2023-06-30T20:35:52.763Z,50.78
2023-06-30T20:38:22.652Z,50.63
2023-06-30T20:40:52.506Z,50.69
2023-06-30T20:43:22.337Z,50.69
2023-06-30T20:45:52.485Z,50.82
2023-06-30T20:48:22.383Z,50.98
2023-06-30T20:50:52.227Z,50.82
2023-06-30T20:53:22.054Z,49.76
2023-06-30T20:55:51.652Z,49.76
2023-06-30T20:58:21.193Z,49.77
2023-06-30T21:00:51.045Z,50.37
2023-06-30T21:03:21.000Z,50.48
2023-06-30T21:05:50.984Z,50.61
2023-06-30T21:08:20.543Z,51.08
2023-06-30T21:10:50.385Z,50.88
2023-06-30T21:13:20.213Z,50.56
2023-06-30T21:15:50.424Z,51.00
2023-06-30T21:18:20.242Z,51.47
2023-06-30T21:20:50.108Z,51.47
2023-06-30T21:23:19.928Z,51.88
2023-06-30T21:25:50.223Z,52.20
2023-06-30T21:28:19.769Z,52.65
2023-06-30T21:30:50.088Z,52.58
2023-06-30T21:33:20.135Z,52.97
2023-06-30T21:35:50.087Z,53.04
2023-06-30T21:38:19.785Z,53.03
2023-06-30T21:40:50.020Z,53.73
2023-06-30T21:43:19.847Z,53.80
2023-06-30T21:45:50.031Z,53.25
2023-06-30T21:48:19.916Z,53.20
2023-06-30T21:50:49.702Z,53.37
2023-06-30T21:53:21.039Z,53.61
2023-06-30T21:55:50.640Z,54.70
2023-06-30T21:58:27.476Z,54.86
2023-06-30T22:00:53.383Z,55.12
2023-06-30T22:03:23.894Z,55.60
2023-06-30T22:05:54.062Z,55.51
2023-06-30T22:08:27.399Z,55.51
2023-06-30T22:10:58.683Z,55.69
2023-06-30T22:13:28.560Z,55.70
2023-06-30T22:15:58.871Z,55.74
2023-06-30T22:18:29.140Z,56.04
2023-06-30T22:20:59.011Z,55.71
2023-06-30T22:23:28.832Z,55.39
2023-06-30T22:25:58.698Z,55.56
2023-06-30T22:28:28.411Z,55.66
2023-06-30T22:30:57.981Z,55.48
2023-06-30T22:33:27.916Z,54.60
2023-06-30T22:35:57.770Z,53.89
2023-06-30T22:38:27.620Z,53.44
2023-06-30T22:40:57.470Z,53.07
2023-06-30T22:43:27.362Z,53.11
2023-06-30T22:45:57.229Z,53.05
2023-06-30T22:48:27.396Z,53.25
2023-06-30T22:50:57.200Z,53.61
2023-06-30T22:53:27.061Z,53.91
2023-06-30T22:55:56.952Z,53.70
2023-06-30T22:58:26.825Z,53.10
2023-06-30T23:00:56.411Z,52.52
2023-06-30T23:03:26.343Z,52.44
2023-06-30T23:05:56.275Z,51.60
2023-06-30T23:08:26.365Z,51.65
2023-06-30T23:10:56.492Z,51.03
2023-06-30T23:13:26.426Z,49.90
2023-06-30T23:15:57.434Z,50.20
2023-06-30T23:18:27.075Z,50.02
2023-06-30T23:20:58.281Z,49.30
2023-06-30T23:23:28.999Z,49.27
2023-06-30T23:25:58.902Z,48.55
2023-06-30T23:28:29.004Z,48.55
2023-06-30T23:30:58.890Z,48.52
2023-06-30T23:33:29.007Z,48.50
2023-06-30T23:35:58.836Z,48.36
2023-06-30T23:38:28.870Z,48.25
2023-06-30T23:40:58.502Z,47.97
2023-06-30T23:43:28.642Z,47.85
2023-06-30T23:45:58.462Z,47.85
2023-06-30T23:48:28.097Z,47.00
2023-06-30T23:50:57.949Z,47.97
2023-06-30T23:53:28.174Z,47.01
2023-06-30T23:55:58.021Z,46.57
2023-06-30T23:58:27.574Z,47.11
